createdAt,value
2022-09-28T00:01:22.977Z,9.56
2022-09-28T00:03:51.637Z,9.58
2022-09-28T00:06:22.097Z,9.63
2022-09-28T00:08:50.671Z,9.59
2022-09-28T00:11:18.843Z,9.56
2022-09-28T00:13:48.762Z,9.57
2022-09-28T00:16:19.115Z,9.53
2022-09-28T00:18:46.268Z,9.53
2022-09-28T00:21:14.079Z,9.55
2022-09-28T00:24:00.157Z,9.59
2022-09-28T00:26:32.744Z,9.64
2022-09-28T00:29:01.335Z,9.62
2022-09-28T00:31:33.353Z,9.63
2022-09-28T00:34:01.772Z,9.67
2022-09-28T00:36:30.219Z,9.73
2022-09-28T00:38:57.239Z,9.74
2022-09-28T00:41:25.806Z,9.79
2022-09-28T00:43:53.092Z,9.81
2022-09-28T00:46:35.425Z,9.75
2022-09-28T00:49:08.776Z,9.78
2022-09-28T00:51:38.708Z,9.82
2022-09-28T00:54:07.751Z,9.87
2022-09-28T00:56:38.367Z,9.92
2022-09-28T00:59:06.094Z,9.86
2022-09-28T01:01:32.920Z,9.88
2022-09-28T01:04:01.392Z,9.84
2022-09-28T01:06:33.144Z,9.86
2022-09-28T01:09:03.356Z,9.86
2022-09-28T01:11:32.065Z,9.83
2022-09-28T01:14:00.776Z,9.78
2022-09-28T01:16:44.078Z,9.78
2022-09-28T01:19:33.853Z,9.71
2022-09-28T01:22:32.067Z,9.61
2022-09-28T01:25:37.211Z,9.54
2022-09-28T01:28:14.560Z,9.49
2022-09-28T01:31:12.520Z,9.49
2022-09-28T01:33:51.874Z,9.49
2022-09-28T01:36:22.382Z,9.57
2022-09-28T01:38:55.218Z,9.62
2022-09-28T01:41:25.090Z,9.58
2022-09-28T01:43:55.714Z,9.52
2022-09-28T01:46:31.815Z,9.50
2022-09-28T01:49:02.140Z,9.47
2022-09-28T01:51:51.308Z,9.33
2022-09-28T01:54:25.666Z,9.29
2022-09-28T01:57:20.958Z,9.37
2022-09-28T02:00:01.707Z,9.26
2022-09-28T02:02:35.610Z,9.21
2022-09-28T02:05:11.777Z,9.25
2022-09-28T02:07:45.177Z,9.09
2022-09-28T02:10:23.053Z,9.16
2022-09-28T02:13:00.021Z,9.16
2022-09-28T02:15:35.603Z,9.22
2022-09-28T02:18:02.559Z,9.24
2022-09-28T02:20:31.945Z,9.33
2022-09-28T02:23:01.359Z,9.33
2022-09-28T02:25:40.437Z,9.26
2022-09-28T02:28:11.751Z,9.14
2022-09-28T02:30:40.334Z,9.15
2022-09-28T02:33:21.756Z,9.04
2022-09-28T02:35:48.560Z,8.98
2022-09-28T02:38:16.750Z,9.00
2022-09-28T02:40:49.261Z,8.95
2022-09-28T02:43:37.104Z,8.93
2022-09-28T02:46:48.089Z,8.91
2022-09-28T02:49:43.532Z,8.96
2022-09-28T02:52:22.458Z,9.04
2022-09-28T02:55:01.613Z,9.04
2022-09-28T02:57:54.448Z,9.07
2022-09-28T03:00:23.093Z,9.14
2022-09-28T03:03:17.559Z,9.19
2022-09-28T03:05:58.222Z,9.14
2022-09-28T03:08:32.177Z,9.17
2022-09-28T03:11:01.959Z,9.18
2022-09-28T03:13:30.869Z,9.19
2022-09-28T03:16:24.428Z,9.11
2022-09-28T03:18:51.393Z,9.07
2022-09-28T03:21:18.584Z,8.90
2022-09-28T03:23:45.446Z,8.82
2022-09-28T03:26:12.818Z,8.75
2022-09-28T03:28:40.317Z,8.66
2022-09-28T03:31:10.016Z,8.65
2022-09-28T03:33:36.597Z,8.59
2022-09-28T03:36:03.280Z,8.64
2022-09-28T03:38:30.994Z,8.69
2022-09-28T03:41:00.399Z,8.75
2022-09-28T03:43:31.615Z,8.66
2022-09-28T03:46:01.851Z,8.78
2022-09-28T03:48:33.099Z,8.83
2022-09-28T03:51:05.737Z,8.93
2022-09-28T03:53:33.289Z,9.02
2022-09-28T03:56:19.136Z,8.98
2022-09-28T03:58:45.799Z,8.93
2022-09-28T04:01:17.261Z,8.94
2022-09-28T04:03:46.563Z,8.90
2022-09-28T04:06:13.919Z,8.86
2022-09-28T04:08:40.598Z,8.82
2022-09-28T04:11:08.438Z,8.81
2022-09-28T04:13:35.057Z,8.75
2022-09-28T04:16:02.358Z,8.66
2022-09-28T04:18:34.700Z,8.59
2022-09-28T04:21:25.933Z,8.60
2022-09-28T04:24:02.648Z,8.58
2022-09-28T04:26:29.293Z,8.45
2022-09-28T04:29:15.749Z,8.42
2022-09-28T04:31:55.271Z,8.31
2022-09-28T04:34:48.444Z,8.24
2022-09-28T04:37:14.984Z,8.15
2022-09-28T04:39:46.162Z,8.10
2022-09-28T04:42:14.544Z,8.08
2022-09-28T04:44:41.114Z,8.06
2022-09-28T04:47:09.903Z,8.01
2022-09-28T04:49:59.436Z,7.98
2022-09-28T04:52:32.000Z,7.95
2022-09-28T04:54:58.705Z,7.87
2022-09-28T04:57:26.389Z,7.80
2022-09-28T04:59:54.346Z,7.86
2022-09-28T05:02:20.975Z,7.76
2022-09-28T05:05:10.296Z,7.71
2022-09-28T05:08:12.532Z,7.75
2022-09-28T05:10:41.249Z,7.78
2022-09-28T05:13:09.416Z,7.80
2022-09-28T05:15:37.197Z,7.72
2022-09-28T05:18:05.016Z,7.73
2022-09-28T05:20:52.057Z,7.81
2022-09-28T05:23:19.100Z,7.90
2022-09-28T05:25:45.930Z,7.97
2022-09-28T05:28:28.024Z,8.10
2022-09-28T05:31:15.172Z,8.23
2022-09-28T05:34:17.044Z,8.36
2022-09-28T05:36:45.707Z,8.44
2022-09-28T05:39:12.348Z,8.46
2022-09-28T05:41:38.953Z,8.41
2022-09-28T05:44:05.733Z,8.44
2022-09-28T05:46:32.362Z,8.45
2022-09-28T05:49:00.814Z,8.49
2022-09-28T05:51:28.544Z,8.50
2022-09-28T05:53:55.999Z,8.50
2022-09-28T05:56:24.788Z,8.49
2022-09-28T05:58:52.518Z,8.59
2022-09-28T06:01:21.802Z,8.61
2022-09-28T06:03:49.092Z,8.69
2022-09-28T06:06:16.321Z,8.78
2022-09-28T06:08:48.290Z,8.79
2022-09-28T06:11:35.126Z,8.71
2022-09-28T06:14:20.755Z,8.69
2022-09-28T06:16:47.696Z,8.73
2022-09-28T06:19:14.375Z,8.72
2022-09-28T06:22:03.890Z,8.88
2022-09-28T06:24:33.207Z,8.96
2022-09-28T06:27:00.597Z,9.05
2022-09-28T06:29:29.269Z,9.14
2022-09-28T06:31:56.881Z,9.17
2022-09-28T06:34:24.792Z,9.24
2022-09-28T06:36:51.928Z,9.25
2022-09-28T06:39:20.444Z,9.27
2022-09-28T06:41:47.063Z,9.39
2022-09-28T06:44:16.412Z,9.37
2022-09-28T06:47:03.487Z,9.44
2022-09-28T06:49:51.297Z,9.46
2022-09-28T06:52:40.967Z,9.48
2022-09-28T06:55:24.233Z,9.49
2022-09-28T06:57:59.055Z,9.57
2022-09-28T07:00:31.181Z,9.52
2022-09-28T07:02:58.879Z,9.60
2022-09-28T07:05:47.071Z,9.66
2022-09-28T07:08:39.562Z,9.60
2022-09-28T07:11:44.712Z,9.71
2022-09-28T07:14:42.658Z,9.69
2022-09-28T07:17:14.240Z,9.82
2022-09-28T07:19:42.253Z,9.89
2022-09-28T07:22:08.960Z,9.94
2022-09-28T07:24:36.125Z,10.00
2022-09-28T07:27:24.403Z,10.02
2022-09-28T07:30:14.647Z,10.12
2022-09-28T07:33:01.081Z,10.18
2022-09-28T07:35:55.783Z,10.27
2022-09-28T07:38:30.214Z,10.25
2022-09-28T07:41:12.286Z,10.39
2022-09-28T07:43:49.943Z,10.39
2022-09-28T07:46:17.482Z,10.52
2022-09-28T07:48:54.597Z,10.57
2022-09-28T07:51:44.716Z,10.61
2022-09-28T07:54:31.903Z,10.74
2022-09-28T07:57:26.902Z,10.80
2022-09-28T08:00:02.546Z,10.91
2022-09-28T08:02:42.431Z,10.90
2022-09-28T08:05:09.975Z,10.94
2022-09-28T08:07:38.272Z,10.96
2022-09-28T08:10:08.720Z,11.11
2022-09-28T08:13:02.138Z,11.21
2022-09-28T08:15:51.878Z,11.29
2022-09-28T08:18:32.201Z,11.33
2022-09-28T08:21:17.480Z,11.43
2022-09-28T08:23:44.144Z,11.49
2022-09-28T08:26:15.420Z,11.56
2022-09-28T08:28:45.453Z,11.64
2022-09-28T08:31:36.102Z,11.62
2022-09-28T08:34:28.128Z,11.88
2022-09-28T08:37:09.177Z,11.97
2022-09-28T08:39:54.161Z,12.03
2022-09-28T08:42:42.187Z,12.25
2022-09-28T08:45:23.268Z,12.47
2022-09-28T08:48:35.460Z,12.63
2022-09-28T08:52:07.828Z,12.40
2022-09-28T08:55:07.724Z,12.87
2022-09-28T08:58:06.635Z,12.98
2022-09-28T09:00:45.557Z,12.98
2022-09-28T09:03:14.976Z,13.22
2022-09-28T09:06:20.603Z,13.29
2022-09-28T09:08:55.431Z,13.32
2022-09-28T09:12:39.592Z,13.46
2022-09-28T09:15:19.685Z,13.63
2022-09-28T09:18:06.490Z,13.72
2022-09-28T09:21:12.075Z,13.65
2022-09-28T09:24:03.563Z,13.49
2022-09-28T09:26:39.295Z,13.68
2022-09-28T09:29:24.768Z,13.76
2022-09-28T09:32:19.309Z,14.02
2022-09-28T09:34:55.261Z,14.04
2022-09-28T09:38:16.331Z,14.16
2022-09-28T09:41:02.512Z,14.35
2022-09-28T09:44:11.645Z,14.24
2022-09-28T09:46:54.075Z,13.99
2022-09-28T09:49:41.730Z,14.18
2022-09-28T09:52:18.492Z,14.22
2022-09-28T09:54:54.869Z,14.48
2022-09-28T09:58:06.795Z,14.89
2022-09-28T10:00:42.561Z,15.21
2022-09-28T10:03:32.205Z,15.25
2022-09-28T10:06:27.394Z,15.13
2022-09-28T10:09:01.827Z,15.40
2022-09-28T10:11:36.595Z,15.33
2022-09-28T10:14:07.630Z,15.57
2022-09-28T10:16:43.051Z,15.71
2022-09-28T10:19:19.416Z,15.97
2022-09-28T10:22:06.766Z,15.82
2022-09-28T10:24:51.676Z,15.90
2022-09-28T10:27:23.655Z,15.80
2022-09-28T10:30:19.927Z,15.73
2022-09-28T10:32:49.793Z,15.78
2022-09-28T10:35:19.983Z,15.97
2022-09-28T10:38:14.253Z,16.02
2022-09-28T10:40:50.314Z,15.95
2022-09-28T10:43:29.606Z,15.78
2022-09-28T10:46:01.421Z,15.53
2022-09-28T10:48:30.015Z,15.51
2022-09-28T10:51:07.669Z,15.19
2022-09-28T10:53:39.032Z,15.40
2022-09-28T10:56:29.063Z,15.36
2022-09-28T10:59:02.786Z,15.40
2022-09-28T11:01:43.275Z,15.33
2022-09-28T11:04:22.147Z,15.20
2022-09-28T11:06:50.439Z,15.40
2022-09-28T11:09:30.516Z,15.67
2022-09-28T11:12:04.839Z,16.09
2022-09-28T11:14:42.474Z,16.31
2022-09-28T11:17:34.274Z,16.29
2022-09-28T11:20:27.005Z,16.52
2022-09-28T11:23:15.700Z,16.26
2022-09-28T11:25:43.139Z,16.38
2022-09-28T11:28:23.320Z,16.42
2022-09-28T11:30:52.887Z,16.44
2022-09-28T11:33:37.374Z,16.84
2022-09-28T11:36:16.992Z,16.50
2022-09-28T11:39:11.332Z,16.26
2022-09-28T11:42:32.120Z,16.36
2022-09-28T11:45:31.750Z,15.85
2022-09-28T11:48:07.988Z,15.37
2022-09-28T11:51:18.250Z,15.08
2022-09-28T11:53:54.842Z,15.03
2022-09-28T11:56:36.714Z,14.92
2022-09-28T11:59:11.853Z,14.82
2022-09-28T12:02:01.251Z,14.78
2022-09-28T12:05:08.025Z,14.70
2022-09-28T12:07:44.553Z,14.69
2022-09-28T12:10:45.524Z,14.59
2022-09-28T12:13:22.511Z,14.61
2022-09-28T12:16:32.599Z,14.55
2022-09-28T12:19:06.909Z,14.42
2022-09-28T12:21:40.909Z,14.33
2022-09-28T12:24:33.472Z,14.18
2022-09-28T12:27:21.982Z,14.00
2022-09-28T12:30:21.067Z,13.91
2022-09-28T12:32:57.233Z,13.75
2022-09-28T12:35:31.823Z,13.66
2022-09-28T12:38:32.879Z,13.46
2022-09-28T12:41:16.670Z,13.45
2022-09-28T12:43:48.595Z,13.63
2022-09-28T12:46:25.256Z,13.49
2022-09-28T12:52:28.426Z,13.63
2022-09-28T12:55:03.025Z,13.71
2022-09-28T12:57:40.056Z,13.67
2022-09-28T13:00:11.121Z,13.67
2022-09-28T13:03:35.437Z,13.60
2022-09-28T13:06:11.950Z,13.68
2022-09-28T13:08:58.168Z,13.57
2022-09-28T13:11:48.612Z,13.50
2022-09-28T13:14:21.210Z,13.47
2022-09-28T13:17:37.730Z,13.66
2022-09-28T13:20:04.194Z,13.80
2022-09-28T13:22:44.396Z,13.95
2022-09-28T13:25:17.923Z,14.01
2022-09-28T13:27:59.716Z,14.09
2022-09-28T13:30:27.132Z,13.96
2022-09-28T13:32:57.600Z,14.07
2022-09-28T13:35:24.641Z,14.05
2022-09-28T13:38:16.796Z,14.11
2022-09-28T13:41:06.100Z,14.01
2022-09-28T13:43:49.153Z,13.93
2022-09-28T13:46:46.304Z,14.45
2022-09-28T13:49:45.701Z,14.55
2022-09-28T13:52:15.313Z,14.69
2022-09-28T13:55:19.167Z,14.93
2022-09-28T13:57:51.639Z,15.07
2022-09-28T14:00:30.841Z,14.71
2022-09-28T14:03:25.159Z,14.73
2022-09-28T14:06:11.338Z,14.88
2022-09-28T14:08:41.901Z,14.80
2022-09-28T14:11:34.980Z,14.91
2022-09-28T14:14:07.906Z,14.86
2022-09-28T14:16:39.619Z,14.68
2022-09-28T14:19:24.316Z,14.49
2022-09-28T14:22:15.783Z,14.46
2022-09-28T14:25:17.211Z,14.56
2022-09-28T14:27:57.440Z,14.48
2022-09-28T14:30:28.581Z,14.30
2022-09-28T14:32:58.424Z,14.39
2022-09-28T14:35:39.227Z,14.08
2022-09-28T14:38:36.106Z,14.08
2022-09-28T14:41:13.828Z,14.08
2022-09-28T14:44:13.469Z,14.03
2022-09-28T14:46:45.447Z,13.98
2022-09-28T14:49:19.123Z,14.16
2022-09-28T14:51:48.633Z,13.98
2022-09-28T14:54:20.486Z,14.15
2022-09-28T14:56:53.195Z,14.18
2022-09-28T14:59:35.961Z,14.12
2022-09-28T15:02:33.130Z,14.10
2022-09-28T15:05:06.065Z,14.13
2022-09-28T15:07:51.662Z,14.00
2022-09-28T15:10:27.787Z,13.94
2022-09-28T15:12:57.079Z,14.05
2022-09-28T15:15:28.860Z,13.99
2022-09-28T15:18:25.894Z,13.97
2022-09-28T15:20:52.683Z,13.88
2022-09-28T15:23:26.041Z,13.78
2022-09-28T15:25:54.418Z,13.69
2022-09-28T15:28:23.659Z,13.61
2022-09-28T15:30:51.196Z,13.52
2022-09-28T15:33:45.097Z,13.50
2022-09-28T15:36:24.179Z,13.50
2022-09-28T15:39:25.192Z,13.57
2022-09-28T15:41:52.217Z,13.67
2022-09-28T15:44:29.480Z,13.78
2022-09-28T15:47:09.399Z,13.74
2022-09-28T15:49:43.814Z,13.63
2022-09-28T15:52:28.392Z,13.78
2022-09-28T15:54:55.828Z,13.85
2022-09-28T15:57:40.160Z,13.83
2022-09-28T16:00:26.639Z,14.02
2022-09-28T16:03:01.676Z,13.99
2022-09-28T16:05:48.456Z,14.09
2022-09-28T16:08:38.459Z,14.10
2022-09-28T16:11:11.750Z,14.09
2022-09-28T16:14:08.839Z,14.06
2022-09-28T16:16:47.659Z,13.91
2022-09-28T16:19:29.534Z,13.93
2022-09-28T16:22:01.858Z,14.09
2022-09-28T16:24:33.981Z,13.97
2022-09-28T16:27:03.583Z,13.98
2022-09-28T16:29:40.099Z,13.99
2022-09-28T16:32:25.348Z,13.91
2022-09-28T16:35:13.107Z,13.83
2022-09-28T16:37:43.633Z,13.77
2022-09-28T16:40:11.449Z,13.77
2022-09-28T16:42:42.657Z,13.73
2022-09-28T16:45:20.267Z,13.69
2022-09-28T16:47:47.359Z,13.62
2022-09-28T16:50:17.403Z,13.54
2022-09-28T16:53:02.596Z,13.43
2022-09-28T16:55:40.063Z,13.41
2022-09-28T16:58:08.499Z,13.31
2022-09-28T17:00:35.340Z,13.29
2022-09-28T17:03:03.991Z,13.19
2022-09-28T17:05:30.858Z,13.10
2022-09-28T17:08:01.626Z,13.03
2022-09-28T17:10:45.148Z,12.87
2022-09-28T17:13:35.896Z,12.76
2022-09-28T17:16:17.465Z,12.64
2022-09-28T17:18:44.989Z,12.51
2022-09-28T17:21:15.894Z,12.45
2022-09-28T17:23:43.545Z,12.33
2022-09-28T17:26:23.454Z,12.27
2022-09-28T17:28:50.226Z,12.15
2022-09-28T17:31:16.944Z,11.95
2022-09-28T17:33:43.572Z,11.79
2022-09-28T17:36:14.769Z,11.90
2022-09-28T17:38:42.826Z,11.90
2022-09-28T17:41:16.814Z,11.84
2022-09-28T17:43:46.466Z,11.81
2022-09-28T17:46:49.039Z,11.76
2022-09-28T17:49:16.634Z,11.76
2022-09-28T17:51:43.241Z,11.81
2022-09-28T17:54:10.784Z,11.73
2022-09-28T17:56:37.614Z,11.70
2022-09-28T17:59:07.059Z,11.56
2022-09-28T18:01:34.968Z,11.51
2022-09-28T18:04:06.134Z,11.45
2022-09-28T18:06:37.289Z,11.54
2022-09-28T18:09:05.159Z,11.48
2022-09-28T18:11:33.086Z,11.39
2022-09-28T18:13:59.798Z,11.30
2022-09-28T18:16:28.558Z,11.24
2022-09-28T18:18:55.251Z,11.22
2022-09-28T18:21:21.921Z,11.08
2022-09-28T18:23:48.528Z,10.98
2022-09-28T18:26:15.838Z,10.95
2022-09-28T18:28:42.582Z,10.89
2022-09-28T18:31:11.112Z,10.80
2022-09-28T18:33:38.089Z,10.73
2022-09-28T18:36:06.211Z,10.70
2022-09-28T18:38:36.280Z,10.66
2022-09-28T18:41:10.520Z,10.61
2022-09-28T18:43:37.580Z,10.58
2022-09-28T18:46:09.311Z,10.47
2022-09-28T18:48:36.775Z,10.38
2022-09-28T18:51:07.363Z,10.27
2022-09-28T18:53:34.797Z,10.18
2022-09-28T18:56:08.299Z,10.18
2022-09-28T18:58:36.115Z,10.23
2022-09-28T19:01:28.476Z,10.22
2022-09-28T19:03:54.955Z,10.17
2022-09-28T19:06:21.793Z,10.08
2022-09-28T19:08:52.817Z,10.04
2022-09-28T19:11:19.803Z,9.94
2022-09-28T19:13:46.420Z,9.89
2022-09-28T19:16:21.263Z,9.81
2022-09-28T19:18:48.741Z,9.72
2022-09-28T19:21:16.025Z,9.65
2022-09-28T19:23:48.899Z,9.58
2022-09-28T19:26:20.346Z,9.56
2022-09-28T19:28:47.890Z,9.65
2022-09-28T19:31:14.723Z,9.63
2022-09-28T19:33:41.712Z,9.59
2022-09-28T19:36:10.907Z,9.55
2022-09-28T19:38:39.180Z,9.52
2022-09-28T19:41:43.153Z,9.37
2022-09-28T19:44:28.996Z,9.36
2022-09-28T19:47:04.100Z,9.29
2022-09-28T19:49:33.232Z,9.32
2022-09-28T19:52:16.064Z,9.30
2022-09-28T19:54:57.540Z,9.41
2022-09-28T19:57:29.952Z,9.48
2022-09-28T20:00:02.420Z,9.49
2022-09-28T20:02:33.242Z,9.48
2022-09-28T20:04:59.884Z,9.32
2022-09-28T20:07:26.774Z,9.25
2022-09-28T20:09:53.523Z,9.25
2022-09-28T20:12:20.190Z,9.29
2022-09-28T20:14:46.863Z,9.29
2022-09-28T20:17:13.542Z,9.16
2022-09-28T20:19:40.445Z,9.09
2022-09-28T20:22:07.003Z,9.13
2022-09-28T20:24:33.717Z,9.14
2022-09-28T20:27:01.361Z,9.10
2022-09-28T20:29:28.320Z,9.13
2022-09-28T20:31:54.779Z,9.18
2022-09-28T20:34:21.343Z,9.11
2022-09-28T20:36:48.200Z,9.14
2022-09-28T20:39:14.753Z,9.12
2022-09-28T20:41:41.375Z,9.09
2022-09-28T20:44:08.387Z,9.13
2022-09-28T20:46:35.594Z,9.16
2022-09-28T20:49:02.882Z,9.14
2022-09-28T20:51:29.453Z,9.06
2022-09-28T20:53:57.567Z,9.04
2022-09-28T20:56:34.511Z,9.07
2022-09-28T20:59:01.369Z,9.11
2022-09-28T21:01:30.001Z,9.07
2022-09-28T21:04:01.815Z,9.05
2022-09-28T21:06:34.576Z,9.03
2022-09-28T21:09:01.668Z,9.01
2022-09-28T21:11:29.823Z,9.00
2022-09-28T21:14:01.653Z,9.04
2022-09-28T21:16:30.773Z,9.02
2022-09-28T21:18:58.400Z,8.99
2022-09-28T21:21:25.893Z,8.99
2022-09-28T21:23:56.863Z,8.93
2022-09-28T21:26:27.680Z,8.97
2022-09-28T21:29:02.560Z,8.92
2022-09-28T21:31:32.876Z,8.92
2022-09-28T21:33:59.709Z,8.92
2022-09-28T21:36:26.679Z,8.95
2022-09-28T21:38:55.478Z,8.95
2022-09-28T21:41:22.259Z,8.88
2022-09-28T21:43:48.919Z,8.82
2022-09-28T21:46:16.170Z,8.79
2022-09-28T21:48:43.318Z,8.69
2022-09-28T21:51:13.500Z,8.55
2022-09-28T21:53:40.204Z,8.60
2022-09-28T21:56:09.906Z,8.66
2022-09-28T21:58:37.065Z,8.64
2022-09-28T22:01:03.844Z,8.60
2022-09-28T22:03:31.690Z,8.67
2022-09-28T22:05:58.591Z,8.59
2022-09-28T22:08:25.877Z,8.56
2022-09-28T22:11:08.204Z,8.52
2022-09-28T22:13:36.972Z,8.52
2022-09-28T22:16:03.765Z,8.51
2022-09-28T22:18:31.859Z,8.48
2022-09-28T22:21:12.881Z,8.41
2022-09-28T22:23:40.680Z,8.34
2022-09-28T22:26:11.026Z,8.31
2022-09-28T22:28:39.873Z,8.31
2022-09-28T22:31:06.744Z,8.28
2022-09-28T22:33:34.227Z,8.22
2022-09-28T22:36:01.050Z,8.24
2022-09-28T22:38:31.246Z,8.24
2022-09-28T22:40:58.266Z,8.20
2022-09-28T22:43:26.150Z,8.17
2022-09-28T22:46:03.560Z,8.12
2022-09-28T22:48:30.667Z,8.06
2022-09-28T22:50:57.418Z,8.06
2022-09-28T22:53:24.387Z,8.08
2022-09-28T22:55:50.986Z,8.00
2022-09-28T22:58:18.028Z,7.89
2022-09-28T23:00:44.978Z,7.82
2022-09-28T23:03:11.710Z,7.77
2022-09-28T23:05:38.335Z,7.74
2022-09-28T23:08:04.946Z,7.78
2022-09-28T23:10:31.689Z,7.76
2022-09-28T23:12:58.442Z,7.71
2022-09-28T23:15:25.474Z,7.63
2022-09-28T23:17:52.915Z,7.73
2022-09-28T23:20:20.789Z,7.78
2022-09-28T23:22:48.419Z,7.82
2022-09-28T23:25:16.629Z,7.79
2022-09-28T23:27:47.917Z,7.75
2022-09-28T23:30:17.042Z,7.71
2022-09-28T23:32:44.091Z,7.75
2022-09-28T23:35:11.610Z,7.73
2022-09-28T23:37:38.431Z,7.73
2022-09-28T23:40:06.336Z,7.73
2022-09-28T23:42:34.740Z,7.74
2022-09-28T23:45:01.598Z,7.71
2022-09-28T23:47:28.293Z,7.71
2022-09-28T23:49:55.140Z,7.70
2022-09-28T23:52:21.664Z,7.70
2022-09-28T23:54:48.308Z,7.67
2022-09-28T23:57:15.123Z,7.63
2022-09-28T23:59:41.766Z,7.73
